Time;durP1;ratioP1;P1;durP2;ratioP2;P2;SDS_P1;SDS_P2;PMS_P1;PMS_P2;Temp;Humidity;BMP_temperature;BMP_pressure;BME280_temperature;BME280_humidity;BME280_pressure;Samples;Min_cycle;Max_cycle;Signal;HPM_P1;HPM_P2
2021/12/21 00:00:32;;;;;;;8.77;5.17;;;;;;;;;;5013465;28;20234;-79
2021/12/21 00:03:00;;;;;;;12.77;5.07;;;;;;;;;;5013076;28;20253;-79
2021/12/21 00:05:29;;;;;;;9.20;4.63;;;;;;;;;;5012738;28;20257;-79
2021/12/21 00:07:57;;;;;;;6.73;4.50;;;;;;;;;;5013524;28;20217;-79
2021/12/21 00:10:25;;;;;;;18.13;5.83;;;;;;;;;;5012644;28;20242;-79
2021/12/21 00:13:03;;;;;;;10.17;5.17;;;;;;;;;;5013174;28;20243;-80
2021/12/21 00:15:40;;;;;;;8.43;5.07;;;;;;;;;;5011855;28;20238;-79
2021/12/21 00:18:20;;;;;;;9.27;5.17;;;;;;;;;;5013490;28;20211;-79
2021/12/21 00:20:56;;;;;;;7.80;5.07;;;;;;;;;;5015869;28;20241;-80
2021/12/21 00:23:35;;;;;;;6.13;4.53;;;;;;;;;;5014856;28;20202;-78
2021/12/21 00:26:03;;;;;;;10.27;5.17;;;;;;;;;;5012479;28;20565;-79
2021/12/21 00:28:38;;;;;;;7.03;5.00;;;;;;;;;;5012481;28;20210;-79
2021/12/21 00:31:05;;;;;;;6.07;4.23;;;;;;;;;;5013002;28;20232;-78
2021/12/21 00:33:33;;;;;;;7.47;4.23;;;;;;;;;;5011892;28;20265;-79
2021/12/21 00:36:00;;;;;;;6.67;4.37;;;;;;;;;;5012271;28;20218;-79
2021/12/21 00:38:28;;;;;;;14.10;5.13;;;;;;;;;;5012267;28;20214;-79
2021/12/21 00:40:55;;;;;;;9.30;4.93;;;;;;;;;;5013022;28;20227;-79
2021/12/21 00:43:22;;;;;;;10.17;5.33;;;;;;;;;;5012513;28;20206;-79
2021/12/21 00:45:49;;;;;;;14.83;6.23;;;;;;;;;;5012819;28;20213;-79
2021/12/21 00:48:17;;;;;;;11.43;5.73;;;;;;;;;;5012528;28;20239;-79
2021/12/21 00:50:46;;;;;;;10.70;5.43;;;;;;;;;;5012868;28;20213;-78
2021/12/21 00:53:13;;;;;;;11.27;5.20;;;;;;;;;;5012121;28;20222;-79
2021/12/21 00:55:40;;;;;;;12.53;5.30;;;;;;;;;;5012454;28;20281;-79
2021/12/21 00:58:07;;;;;;;5.50;5.00;;;;;;;;;;5012258;28;20222;-78
2021/12/21 01:00:34;;;;;;;9.00;5.60;;;;;;;;;;5012330;28;20240;-78
2021/12/21 01:03:07;;;;;;;8.87;4.93;;;;;;;;;;5016197;28;20245;-78
2021/12/21 01:05:42;;;;;;;11.30;5.40;;;;;;;;;;5015668;28;20324;-79
2021/12/21 01:08:15;;;;;;;15.47;5.70;;;;;;;;;;5016492;28;20192;-79
2021/12/21 01:11:06;;;;;;;8.20;5.20;;;;;;;;;;5015892;28;20203;-79
2021/12/21 01:13:50;;;;;;;11.73;5.90;;;;;;;;;;5015302;28;20328;-80
2021/12/21 01:16:23;;;;;;;8.40;5.17;;;;;;;;;;5071508;23;20264;-82
2021/12/21 01:19:04;;;;;;;8.47;5.20;;;;;;;;;;5053789;28;20264;-81
2021/12/21 01:21:35;;;;;;;10.90;5.27;;;;;;;;;;5054181;28;20213;-82
2021/12/21 01:24:28;;;;;;;7.23;5.13;;;;;;;;;;5052493;28;20237;-83
2021/12/21 01:27:02;;;;;;;10.87;5.07;;;;;;;;;;5033598;28;20220;-84
2021/12/21 01:29:36;;;;;;;10.07;5.37;;;;;;;;;;5032498;28;20265;-83
2021/12/21 01:32:09;;;;;;;11.13;5.70;;;;;;;;;;5033183;28;20227;-83
2021/12/21 01:34:46;;;;;;;10.87;5.00;;;;;;;;;;5031833;28;20237;-83
2021/12/21 01:37:21;;;;;;;13.00;5.97;;;;;;;;;;5033336;28;20218;-83
2021/12/21 01:40:04;;;;;;;9.53;5.00;;;;;;;;;;5032517;28;20241;-83
2021/12/21 01:50:41;;;;;;;11.57;5.33;;;;;;;;;;5032166;28;20270;-83
2021/12/21 01:53:08;;;;;;;10.97;5.80;;;;;;;;;;5032503;28;20228;-83
2021/12/21 01:55:37;;;;;;;16.23;5.97;;;;;;;;;;5032744;28;20242;-83
2021/12/21 01:58:04;;;;;;;9.47;5.20;;;;;;;;;;5032994;28;20340;-83
2021/12/21 02:00:31;;;;;;;9.07;4.70;;;;;;;;;;5031032;28;20246;-84
2021/12/21 02:02:58;;;;;;;8.67;4.73;;;;;;;;;;5029276;28;20220;-83
2021/12/21 02:05:25;;;;;;;7.37;5.30;;;;;;;;;;5028285;28;20730;-84
2021/12/21 02:07:52;;;;;;;7.27;4.87;;;;;;;;;;5029180;28;20209;-82
2021/12/21 02:10:19;;;;;;;7.43;5.23;;;;;;;;;;5031955;28;20241;-81
2021/12/21 02:12:48;;;;;;;8.33;5.10;;;;;;;;;;5032420;28;20226;-82
2021/12/21 02:15:15;;;;;;;14.00;5.33;;;;;;;;;;5030870;28;20249;-82
2021/12/21 02:20:37;;;;;;;9.63;5.57;;;;;;;;;;5028331;28;20252;-82
2021/12/21 02:23:09;;;;;;;18.93;5.90;;;;;;;;;;5032211;28;20207;-82
2021/12/21 02:25:58;;;;;;;13.20;6.20;;;;;;;;;;5029246;28;20243;-81
2021/12/21 02:28:47;;;;;;;9.40;5.37;;;;;;;;;;5027190;28;20208;-81
2021/12/21 02:31:16;;;;;;;12.67;5.60;;;;;;;;;;5021629;28;20206;-81
2021/12/21 02:33:45;;;;;;;6.70;4.97;;;;;;;;;;5032074;28;20243;-82
2021/12/21 02:36:13;;;;;;;9.93;5.20;;;;;;;;;;5031882;28;20225;-82
2021/12/21 02:38:40;;;;;;;7.17;5.33;;;;;;;;;;5031792;28;20237;-81
2021/12/21 02:41:08;;;;;;;10.13;5.77;;;;;;;;;;5032319;28;20209;-82
2021/12/21 02:43:38;;;;;;;10.93;5.17;;;;;;;;;;5031527;28;20244;-82
2021/12/21 02:46:05;;;;;;;8.97;5.07;;;;;;;;;;5032408;28;20229;-81
2021/12/21 02:48:32;;;;;;;9.80;5.10;;;;;;;;;;5031544;28;20684;-81
2021/12/21 02:50:59;;;;;;;8.30;5.10;;;;;;;;;;5032093;28;20205;-82
2021/12/21 02:53:28;;;;;;;11.57;5.67;;;;;;;;;;5030895;28;20219;-81
2021/12/21 02:55:55;;;;;;;11.70;5.90;;;;;;;;;;5032091;28;20230;-82
2021/12/21 02:58:22;;;;;;;6.67;4.87;;;;;;;;;;5030906;28;20204;-82
2021/12/21 03:00:51;;;;;;;10.63;5.17;;;;;;;;;;5032262;28;20261;-82
2021/12/21 03:03:18;;;;;;;6.93;5.00;;;;;;;;;;5031763;28;20204;-82
2021/12/21 03:05:50;;;;;;;9.47;5.47;;;;;;;;;;5030916;28;20312;-81
2021/12/21 03:08:20;;;;;;;9.90;4.80;;;;;;;;;;5031317;28;20212;-81
2021/12/21 03:11:03;;;;;;;9.67;5.27;;;;;;;;;;5031270;28;20606;-82
2021/12/21 03:16:15;;;;;;;5.90;4.97;;;;;;;;;;5030513;28;20236;-83
2021/12/21 03:18:42;;;;;;;9.73;6.07;;;;;;;;;;5031090;28;20241;-81
2021/12/21 03:21:09;;;;;;;5.93;4.67;;;;;;;;;;5031149;28;20708;-82
2021/12/21 03:23:36;;;;;;;7.87;5.20;;;;;;;;;;5029752;28;20228;-82
2021/12/21 03:26:04;;;;;;;8.10;5.30;;;;;;;;;;5031031;28;20243;-81
2021/12/21 03:28:31;;;;;;;6.30;5.13;;;;;;;;;;5031803;28;20212;-81
2021/12/21 03:30:58;;;;;;;8.63;5.10;;;;;;;;;;5031399;28;20223;-81
2021/12/21 03:33:26;;;;;;;7.40;6.00;;;;;;;;;;5030633;28;20236;-81
2021/12/21 03:35:53;;;;;;;8.10;5.20;;;;;;;;;;5032193;28;20224;-82
2021/12/21 03:38:20;;;;;;;8.13;5.13;;;;;;;;;;5030454;28;20224;-82
2021/12/21 03:40:47;;;;;;;6.50;4.90;;;;;;;;;;5019222;28;20240;-81
2021/12/21 03:43:15;;;;;;;6.10;5.27;;;;;;;;;;5015537;28;20200;-82
2021/12/21 03:45:52;;;;;;;7.53;5.27;;;;;;;;;;5031455;28;20220;-81
2021/12/21 03:48:19;;;;;;;7.20;5.20;;;;;;;;;;5030792;28;20315;-81
2021/12/21 03:50:46;;;;;;;7.87;5.17;;;;;;;;;;5031422;28;20208;-81
2021/12/21 03:53:13;;;;;;;6.20;5.13;;;;;;;;;;5026960;28;20243;-82
2021/12/21 03:55:40;;;;;;;7.77;5.20;;;;;;;;;;5031320;28;20328;-82
2021/12/21 03:58:07;;;;;;;6.93;5.27;;;;;;;;;;5030794;28;20218;-81
2021/12/21 04:00:35;;;;;;;12.23;6.27;;;;;;;;;;5029429;28;20236;-82
2021/12/21 04:03:02;;;;;;;8.63;5.00;;;;;;;;;;5031235;28;20197;-81
2021/12/21 04:05:29;;;;;;;7.60;5.13;;;;;;;;;;5029193;28;20248;-81
2021/12/21 04:07:56;;;;;;;5.80;5.20;;;;;;;;;;5030564;28;20187;-81
2021/12/21 04:10:23;;;;;;;7.10;4.83;;;;;;;;;;5030368;28;20231;-81
2021/12/21 04:12:50;;;;;;;11.40;6.43;;;;;;;;;;5030741;28;20204;-82
2021/12/21 04:15:23;;;;;;;10.73;5.80;;;;;;;;;;5030707;28;20237;-83
2021/12/21 04:17:51;;;;;;;8.70;5.50;;;;;;;;;;5033393;28;20232;-82
2021/12/21 04:20:18;;;;;;;9.83;5.27;;;;;;;;;;5015174;28;20589;-82
2021/12/21 04:22:45;;;;;;;11.43;5.93;;;;;;;;;;5008233;28;20197;-82
2021/12/21 04:25:12;;;;;;;12.90;5.63;;;;;;;;;;5011915;28;20241;-82
2021/12/21 04:27:40;;;;;;;7.80;5.57;;;;;;;;;;5013085;28;20235;-81
2021/12/21 04:30:07;;;;;;;8.77;5.80;;;;;;;;;;5016358;28;20239;-82
2021/12/21 04:32:34;;;;;;;10.57;6.43;;;;;;;;;;5019438;28;20208;-82
2021/12/21 04:35:03;;;;;;;13.00;7.07;;;;;;;;;;5020056;28;20259;-82
2021/12/21 04:37:30;;;;;;;16.00;6.37;;;;;;;;;;5023609;28;20223;-81
2021/12/21 04:40:03;;;;;;;17.43;7.07;;;;;;;;;;5023936;28;20231;-82
2021/12/21 04:42:30;;;;;;;14.83;7.80;;;;;;;;;;5025957;28;20207;-81
2021/12/21 04:44:57;;;;;;;13.80;7.07;;;;;;;;;;5025114;28;20244;-81
2021/12/21 04:47:24;;;;;;;11.57;6.97;;;;;;;;;;5026084;28;20213;-82
2021/12/21 04:49:54;;;;;;;13.17;7.03;;;;;;;;;;5026627;28;20243;-82
2021/12/21 04:52:22;;;;;;;12.63;7.33;;;;;;;;;;5026394;28;20209;-82
2021/12/21 04:54:49;;;;;;;18.30;7.87;;;;;;;;;;5025570;28;20254;-82
2021/12/21 04:57:16;;;;;;;13.53;8.47;;;;;;;;;;5026907;28;20208;-81
2021/12/21 04:59:43;;;;;;;13.53;8.13;;;;;;;;;;5027003;28;20239;-82
2021/12/21 05:02:10;;;;;;;17.43;8.17;;;;;;;;;;5027569;28;20207;-82
2021/12/21 05:04:38;;;;;;;13.70;8.47;;;;;;;;;;5027945;28;20235;-82
2021/12/21 05:07:06;;;;;;;14.60;8.13;;;;;;;;;;5028249;28;20302;-82
2021/12/21 05:09:41;;;;;;;11.30;7.47;;;;;;;;;;5027957;28;20263;-81
2021/12/21 05:12:11;;;;;;;17.10;7.83;;;;;;;;;;5027060;28;20214;-82
2021/12/21 05:14:38;;;;;;;15.93;8.47;;;;;;;;;;5027623;28;20231;-82
2021/12/21 05:17:06;;;;;;;15.20;8.00;;;;;;;;;;5028414;28;20207;-82
2021/12/21 05:19:33;;;;;;;20.13;9.87;;;;;;;;;;5029783;28;20659;-82
2021/12/21 05:22:00;;;;;;;17.07;8.80;;;;;;;;;;5028019;28;20212;-81
2021/12/21 05:24:27;;;;;;;12.40;7.60;;;;;;;;;;5028506;28;20238;-82
2021/12/21 05:26:55;;;;;;;13.03;7.87;;;;;;;;;;5029358;28;20210;-81
2021/12/21 05:29:23;;;;;;;14.07;8.27;;;;;;;;;;5028575;28;20231;-80
2021/12/21 05:31:50;;;;;;;13.43;7.47;;;;;;;;;;5028986;28;20224;-80
2021/12/21 05:34:17;;;;;;;12.30;8.43;;;;;;;;;;5028791;28;20239;-80
2021/12/21 05:36:44;;;;;;;16.63;8.93;;;;;;;;;;5028969;28;20219;-81
2021/12/21 05:39:17;;;;;;;20.27;7.90;;;;;;;;;;5028869;28;20246;-80
2021/12/21 05:41:50;;;;;;;16.17;8.17;;;;;;;;;;5029356;28;20390;-82
2021/12/21 05:44:19;;;;;;;15.83;8.77;;;;;;;;;;5028805;28;20248;-83
2021/12/21 05:46:46;;;;;;;17.30;7.63;;;;;;;;;;5030694;28;20207;-82
2021/12/21 05:49:13;;;;;;;17.90;8.63;;;;;;;;;;5032011;28;20239;-82
2021/12/21 05:51:40;;;;;;;17.73;9.27;;;;;;;;;;5033452;28;20212;-81
2021/12/21 05:54:07;;;;;;;21.70;9.70;;;;;;;;;;5032289;28;20235;-83
2021/12/21 05:56:34;;;;;;;18.07;9.47;;;;;;;;;;5033504;28;20191;-82
2021/12/21 05:59:02;;;;;;;25.27;9.87;;;;;;;;;;5032839;28;20231;-82
2021/12/21 06:01:31;;;;;;;26.60;9.23;;;;;;;;;;5032733;28;20203;-82
2021/12/21 06:03:58;;;;;;;22.90;9.00;;;;;;;;;;5032390;28;20238;-82
2021/12/21 06:06:25;;;;;;;19.10;9.47;;;;;;;;;;5032902;28;20236;-81
2021/12/21 06:08:54;;;;;;;20.40;9.10;;;;;;;;;;5033345;28;20231;-83
2021/12/21 06:11:23;;;;;;;27.50;10.20;;;;;;;;;;5033147;28;20215;-84
2021/12/21 06:14:12;;;;;;;20.93;8.70;;;;;;;;;;5033660;28;20475;-84
2021/12/21 06:27:46;;;;;;;21.90;9.77;;;;;;;;;;5032419;28;20228;-83
2021/12/21 06:30:14;;;;;;;27.43;9.53;;;;;;;;;;5033697;28;20244;-85
2021/12/21 06:32:42;;;;;;;19.17;9.03;;;;;;;;;;5032232;28;20236;-84
2021/12/21 06:35:10;;;;;;;20.80;9.30;;;;;;;;;;5031469;28;20266;-84
2021/12/21 06:37:39;;;;;;;29.07;8.47;;;;;;;;;;5032236;28;20214;-84
2021/12/21 06:40:06;;;;;;;23.23;9.27;;;;;;;;;;5031241;28;20250;-83
2021/12/21 06:42:35;;;;;;;26.10;7.83;;;;;;;;;;5031552;28;20211;-83
2021/12/21 06:45:02;;;;;;;18.20;8.67;;;;;;;;;;5030939;28;20242;-84
2021/12/21 06:53:00;;;;;;;21.27;9.60;;;;;;;;;;5029468;28;20211;-84
2021/12/21 06:55:28;;;;;;;21.53;9.63;;;;;;;;;;5030810;28;20247;-84
2021/12/21 06:57:57;;;;;;;33.50;10.97;;;;;;;;;;5029741;28;20192;-84
2021/12/21 07:00:24;;;;;;;35.00;10.37;;;;;;;;;;5028490;28;20242;-83
2021/12/21 07:02:52;;;;;;;38.00;11.23;;;;;;;;;;5027404;28;20238;-82
2021/12/21 07:05:20;;;;;;;20.10;9.70;;;;;;;;;;5030972;28;20240;-84
2021/12/21 07:07:49;;;;;;;20.23;10.83;;;;;;;;;;5029834;28;20208;-85
2021/12/21 07:10:23;;;;;;;44.90;10.57;;;;;;;;;;5029969;28;20235;-85
2021/12/21 07:18:29;;;;;;;15.63;9.03;;;;;;;;;;5053964;23;20258;-79
2021/12/21 07:20:57;;;;;;;21.80;9.40;;;;;;;;;;5033399;28;20203;-79
2021/12/21 07:23:24;;;;;;;30.83;10.13;;;;;;;;;;5031713;28;20211;-78
2021/12/21 07:25:51;;;;;;;26.67;10.87;;;;;;;;;;5033094;28;20206;-79
2021/12/21 07:28:19;;;;;;;21.47;10.13;;;;;;;;;;5032535;28;20311;-78
2021/12/21 07:30:48;;;;;;;27.63;10.20;;;;;;;;;;5033006;28;20207;-78
2021/12/21 07:33:15;;;;;;;35.33;9.83;;;;;;;;;;5032223;28;20235;-77
2021/12/21 07:35:42;;;;;;;29.77;11.33;;;;;;;;;;5032859;28;20226;-77
2021/12/21 07:38:11;;;;;;;34.90;11.17;;;;;;;;;;5033138;28;20594;-77
2021/12/21 07:40:38;;;;;;;39.80;13.47;;;;;;;;;;5032739;28;20231;-78
2021/12/21 07:43:05;;;;;;;24.63;10.17;;;;;;;;;;5033242;28;20211;-77
2021/12/21 07:45:33;;;;;;;38.33;12.67;;;;;;;;;;5031974;28;20251;-77
2021/12/21 07:48:00;;;;;;;35.20;13.50;;;;;;;;;;5033027;28;20228;-77
2021/12/21 07:50:27;;;;;;;19.17;11.23;;;;;;;;;;5032331;28;20854;-77
2021/12/21 07:52:56;;;;;;;31.20;11.37;;;;;;;;;;5032825;28;20288;-78
2021/12/21 07:55:25;;;;;;;24.83;10.57;;;;;;;;;;5032060;28;20611;-77
2021/12/21 07:57:52;;;;;;;21.50;10.77;;;;;;;;;;5032464;28;20265;-78
2021/12/21 08:00:21;;;;;;;46.83;14.57;;;;;;;;;;5032009;28;20240;-78
2021/12/21 08:02:48;;;;;;;48.87;14.03;;;;;;;;;;5032434;28;20302;-78
2021/12/21 08:05:15;;;;;;;44.60;14.07;;;;;;;;;;5031895;28;20241;-77
2021/12/21 08:07:48;;;;;;;46.27;15.20;;;;;;;;;;5033745;28;20231;-79
2021/12/21 08:10:26;;;;;;;51.33;14.80;;;;;;;;;;5032622;28;20253;-78
2021/12/21 08:12:54;;;;;;;28.33;11.23;;;;;;;;;;5033317;28;20191;-77
2021/12/21 08:15:22;;;;;;;34.60;11.93;;;;;;;;;;5031843;28;20241;-77
2021/12/21 08:17:49;;;;;;;58.30;13.13;;;;;;;;;;5028543;28;20235;-77
2021/12/21 08:20:16;;;;;;;34.00;13.30;;;;;;;;;;5031630;28;20232;-77
2021/12/21 08:22:45;;;;;;;24.93;11.70;;;;;;;;;;5032106;28;20195;-77
2021/12/21 08:25:12;;;;;;;26.50;11.27;;;;;;;;;;5032753;28;20235;-77
2021/12/21 08:27:42;;;;;;;35.20;12.73;;;;;;;;;;5049788;28;20226;-78
2021/12/21 08:30:11;;;;;;;27.53;12.77;;;;;;;;;;5047789;28;20243;-79
2021/12/21 08:32:39;;;;;;;36.13;11.20;;;;;;;;;;5034122;28;20195;-77
2021/12/21 08:35:06;;;;;;;25.37;11.10;;;;;;;;;;5033863;28;20231;-78
2021/12/21 08:37:34;;;;;;;31.30;10.93;;;;;;;;;;5036540;28;20233;-77
2021/12/21 08:40:01;;;;;;;26.80;11.67;;;;;;;;;;5033321;28;20240;-78
2021/12/21 08:42:28;;;;;;;22.60;10.87;;;;;;;;;;5031714;28;20609;-78
2021/12/21 08:44:56;;;;;;;47.23;13.90;;;;;;;;;;5032142;28;20242;-77
2021/12/21 08:47:27;;;;;;;25.77;12.43;;;;;;;;;;5031993;28;20270;-77
2021/12/21 08:49:54;;;;;;;30.90;11.80;;;;;;;;;;5031728;28;20266;-77
2021/12/21 08:52:22;;;;;;;35.80;13.00;;;;;;;;;;5031840;28;20217;-77
2021/12/21 08:54:49;;;;;;;50.30;14.03;;;;;;;;;;5031514;28;20233;-77
2021/12/21 08:57:16;;;;;;;26.60;10.63;;;;;;;;;;5032041;28;20236;-77
2021/12/21 08:59:43;;;;;;;34.23;10.23;;;;;;;;;;5031400;28;20296;-76
2021/12/21 09:02:11;;;;;;;14.60;9.93;;;;;;;;;;5031766;28;20745;-77
2021/12/21 09:04:40;;;;;;;13.47;9.97;;;;;;;;;;5031125;28;20242;-77
2021/12/21 09:07:07;;;;;;;19.37;9.40;;;;;;;;;;5029389;28;20267;-78
2021/12/21 09:09:34;;;;;;;35.77;11.17;;;;;;;;;;5025413;28;20235;-76
2021/12/21 09:12:01;;;;;;;20.80;9.03;;;;;;;;;;5031249;28;20204;-77
2021/12/21 09:14:32;;;;;;;25.40;10.13;;;;;;;;;;5030848;28;20355;-77
2021/12/21 09:16:59;;;;;;;30.90;10.43;;;;;;;;;;5030770;28;20290;-77
2021/12/21 09:19:26;;;;;;;16.67;10.23;;;;;;;;;;5030233;28;20228;-76
2021/12/21 09:21:54;;;;;;;15.53;9.57;;;;;;;;;;5032297;28;20696;-78
2021/12/21 09:24:21;;;;;;;17.03;9.77;;;;;;;;;;5034239;28;20240;-78
2021/12/21 09:26:48;;;;;;;18.27;10.20;;;;;;;;;;5034761;28;20237;-77
2021/12/21 09:29:15;;;;;;;16.37;9.40;;;;;;;;;;5013988;28;20252;-77
2021/12/21 09:31:43;;;;;;;17.57;10.60;;;;;;;;;;5014864;28;20291;-77
2021/12/21 09:34:10;;;;;;;18.20;10.07;;;;;;;;;;5025463;28;20288;-77
2021/12/21 09:36:37;;;;;;;12.07;10.10;;;;;;;;;;5034959;28;20204;-76
2021/12/21 09:39:05;;;;;;;14.27;9.97;;;;;;;;;;5031182;28;20727;-77
2021/12/21 09:41:33;;;;;;;18.40;10.37;;;;;;;;;;5034540;28;20208;-77
2021/12/21 09:44:01;;;;;;;14.63;10.70;;;;;;;;;;5033809;28;20585;-77
2021/12/21 09:46:28;;;;;;;19.97;10.53;;;;;;;;;;5033797;28;20237;-77
2021/12/21 09:48:55;;;;;;;19.30;12.10;;;;;;;;;;5033792;28;20234;-77
2021/12/21 09:51:22;;;;;;;14.83;10.97;;;;;;;;;;5034709;28;20224;-77
2021/12/21 09:53:50;;;;;;;17.20;12.13;;;;;;;;;;5034492;28;20234;-77
2021/12/21 09:56:20;;;;;;;19.43;13.13;;;;;;;;;;5034724;28;20574;-77
2021/12/21 09:58:47;;;;;;;22.17;14.03;;;;;;;;;;5034032;28;20247;-77
2021/12/21 10:01:15;;;;;;;23.03;13.07;;;;;;;;;;5033985;28;20213;-78
2021/12/21 10:03:42;;;;;;;18.77;12.63;;;;;;;;;;5033500;28;20722;-77
2021/12/21 10:06:10;;;;;;;19.37;10.50;;;;;;;;;;5034250;28;20288;-77
2021/12/21 10:08:39;;;;;;;17.27;10.27;;;;;;;;;;5033684;28;20261;-77
2021/12/21 10:11:17;;;;;;;16.30;10.17;;;;;;;;;;5034029;28;20213;-77
2021/12/21 10:13:46;;;;;;;13.33;9.47;;;;;;;;;;5033969;28;20238;-78
2021/12/21 10:16:13;;;;;;;13.53;9.03;;;;;;;;;;5033784;28;20206;-77
2021/12/21 10:18:41;;;;;;;11.87;8.63;;;;;;;;;;5033298;28;20234;-77
2021/12/21 10:21:10;;;;;;;12.83;9.13;;;;;;;;;;5033916;28;20209;-77
2021/12/21 10:23:37;;;;;;;12.20;8.97;;;;;;;;;;5033939;28;20242;-77
2021/12/21 10:26:08;;;;;;;17.93;11.33;;;;;;;;;;5034433;28;20229;-77
2021/12/21 10:28:36;;;;;;;14.33;10.40;;;;;;;;;;5033306;28;20249;-79
2021/12/21 10:31:05;;;;;;;16.13;10.47;;;;;;;;;;5033746;28;20218;-78
2021/12/21 10:33:33;;;;;;;12.27;9.20;;;;;;;;;;5033468;28;20252;-78
2021/12/21 10:36:03;;;;;;;15.13;9.93;;;;;;;;;;5033718;28;20206;-78
2021/12/21 10:38:32;;;;;;;18.77;10.97;;;;;;;;;;5033395;28;20237;-78
2021/12/21 10:41:00;;;;;;;22.63;11.53;;;;;;;;;;5033617;28;20619;-78
2021/12/21 10:43:29;;;;;;;16.43;10.43;;;;;;;;;;5032543;28;20614;-78
2021/12/21 10:45:56;;;;;;;18.50;10.67;;;;;;;;;;5033521;28;20264;-79
2021/12/21 10:48:24;;;;;;;13.53;10.03;;;;;;;;;;5032892;28;20229;-78
2021/12/21 10:50:52;;;;;;;14.83;9.73;;;;;;;;;;5033911;28;20214;-78
2021/12/21 10:53:19;;;;;;;20.93;11.10;;;;;;;;;;5032797;28;20207;-78
2021/12/21 10:55:47;;;;;;;25.20;13.23;;;;;;;;;;5033516;28;20243;-78
2021/12/21 10:58:16;;;;;;;16.93;10.53;;;;;;;;;;5033208;28;20229;-79
2021/12/21 11:00:45;;;;;;;21.23;11.77;;;;;;;;;;5032855;28;20259;-78
2021/12/21 11:03:12;;;;;;;19.00;11.63;;;;;;;;;;5033166;28;20206;-78
2021/12/21 11:05:42;;;;;;;22.43;11.23;;;;;;;;;;5032848;28;20238;-78
2021/12/21 11:08:16;;;;;;;19.67;9.70;;;;;;;;;;5033299;28;20226;-77
2021/12/21 11:10:48;;;;;;;17.47;10.57;;;;;;;;;;5033103;28;20305;-77
2021/12/21 11:13:16;;;;;;;18.83;11.37;;;;;;;;;;5032873;28;20252;-76
2021/12/21 11:15:44;;;;;;;16.07;10.83;;;;;;;;;;5032636;28;20209;-76
2021/12/21 11:18:13;;;;;;;21.40;11.30;;;;;;;;;;5033296;28;20238;-77
2021/12/21 11:20:43;;;;;;;19.03;11.33;;;;;;;;;;5032857;28;20229;-76
2021/12/21 11:23:12;;;;;;;20.07;11.53;;;;;;;;;;5032440;28;20261;-76
2021/12/21 11:25:41;;;;;;;15.80;10.70;;;;;;;;;;5032566;28;20289;-78
2021/12/21 11:28:08;;;;;;;22.83;11.83;;;;;;;;;;5032953;28;20226;-77
2021/12/21 11:30:36;;;;;;;26.80;13.07;;;;;;;;;;5032518;28;20738;-78
2021/12/21 11:33:06;;;;;;;23.40;11.30;;;;;;;;;;5032774;28;20214;-77
2021/12/21 11:38:19;;;;;;;26.37;12.57;;;;;;;;;;5031187;28;20218;-78
2021/12/21 11:40:47;;;;;;;18.97;11.50;;;;;;;;;;5032929;28;20243;-77
2021/12/21 11:43:18;;;;;;;20.67;12.80;;;;;;;;;;5031685;28;20202;-78
2021/12/21 11:45:48;;;;;;;20.93;12.77;;;;;;;;;;5031996;28;20229;-77
2021/12/21 11:48:19;;;;;;;17.83;11.63;;;;;;;;;;5012554;28;20235;-77
2021/12/21 11:50:47;;;;;;;20.70;11.33;;;;;;;;;;5013380;28;20218;-78
2021/12/21 11:53:17;;;;;;;19.40;11.70;;;;;;;;;;5012541;28;20230;-78
2021/12/21 11:55:47;;;;;;;21.13;12.13;;;;;;;;;;5013226;28;20573;-77
2021/12/21 11:58:16;;;;;;;24.97;13.23;;;;;;;;;;5012196;28;20227;-78
2021/12/21 12:00:47;;;;;;;26.53;12.87;;;;;;;;;;5020186;28;20203;-77
2021/12/21 12:03:18;;;;;;;20.63;11.43;;;;;;;;;;5032029;28;20206;-77
2021/12/21 12:05:51;;;;;;;23.90;10.27;;;;;;;;;;5032125;28;20273;-77
2021/12/21 12:08:18;;;;;;;19.33;10.53;;;;;;;;;;5031724;28;20730;-78
2021/12/21 12:10:50;;;;;;;14.60;9.83;;;;;;;;;;5032392;28;20221;-78
2021/12/21 12:13:18;;;;;;;16.33;10.03;;;;;;;;;;5031365;28;20218;-77
2021/12/21 12:15:46;;;;;;;20.03;10.40;;;;;;;;;;5032213;28;20252;-78
2021/12/21 12:18:20;;;;;;;17.63;10.40;;;;;;;;;;5031269;28;20241;-78
2021/12/21 12:20:47;;;;;;;24.33;10.33;;;;;;;;;;5032188;28;20206;-78
2021/12/21 12:23:16;;;;;;;23.30;11.27;;;;;;;;;;5031419;28;20209;-77
2021/12/21 12:25:51;;;;;;;22.63;10.37;;;;;;;;;;5031704;28;20230;-77
2021/12/21 12:28:23;;;;;;;16.23;11.13;;;;;;;;;;5030940;28;20228;-77
2021/12/21 12:30:51;;;;;;;20.33;11.40;;;;;;;;;;5031602;28;20234;-77
2021/12/21 12:33:18;;;;;;;15.97;10.47;;;;;;;;;;5031013;28;20667;-76
2021/12/21 12:35:46;;;;;;;14.87;10.53;;;;;;;;;;5031233;28;20318;-77
2021/12/21 12:38:22;;;;;;;12.37;9.33;;;;;;;;;;5030922;28;20590;-77
2021/12/21 12:40:52;;;;;;;14.47;9.97;;;;;;;;;;5023140;28;20785;-77
2021/12/21 12:43:20;;;;;;;17.40;9.97;;;;;;;;;;5027400;28;20655;-77
2021/12/21 12:45:51;;;;;;;14.40;8.77;;;;;;;;;;5031137;28;20234;-78
2021/12/21 12:48:19;;;;;;;25.60;9.20;;;;;;;;;;5031233;28;20573;-77
2021/12/21 12:50:47;;;;;;;12.23;8.33;;;;;;;;;;5031235;28;20212;-76
2021/12/21 12:53:14;;;;;;;13.93;8.63;;;;;;;;;;5030129;28;20203;-75
2021/12/21 12:55:43;;;;;;;8.57;6.80;;;;;;;;;;5030926;28;20716;-74
2021/12/21 12:58:15;;;;;;;11.77;7.33;;;;;;;;;;5034441;28;20327;-77
2021/12/21 13:00:44;;;;;;;9.27;7.43;;;;;;;;;;5035156;28;20236;-77
2021/12/21 13:03:11;;;;;;;11.23;6.67;;;;;;;;;;5035395;28;20211;-77
2021/12/21 13:05:43;;;;;;;13.03;6.87;;;;;;;;;;5035383;28;20722;-77
2021/12/21 13:08:11;;;;;;;13.73;7.17;;;;;;;;;;5035728;28;20317;-77
2021/12/21 13:10:38;;;;;;;13.90;7.33;;;;;;;;;;5035193;28;20239;-77
2021/12/21 13:13:05;;;;;;;12.20;7.03;;;;;;;;;;5035161;28;20213;-77
2021/12/21 13:15:34;;;;;;;12.53;6.67;;;;;;;;;;5034979;28;20746;-77
2021/12/21 13:18:02;;;;;;;11.97;6.87;;;;;;;;;;5035565;28;20236;-77
2021/12/21 13:20:29;;;;;;;9.07;6.33;;;;;;;;;;5034643;28;20231;-77
2021/12/21 13:22:56;;;;;;;12.93;7.17;;;;;;;;;;5035187;28;20216;-76
2021/12/21 13:25:23;;;;;;;9.83;6.17;;;;;;;;;;5076022;23;20245;-83
2021/12/21 13:27:50;;;;;;;9.43;6.77;;;;;;;;;;5071302;28;20221;-83
2021/12/21 13:30:19;;;;;;;7.30;6.00;;;;;;;;;;5081906;28;20244;-83
2021/12/21 13:32:48;;;;;;;11.00;6.70;;;;;;;;;;5072481;28;20227;-83
2021/12/21 13:35:16;;;;;;;9.00;5.93;;;;;;;;;;5058745;28;20339;-83
2021/12/21 13:37:43;;;;;;;8.80;5.63;;;;;;;;;;5062515;28;20208;-84
2021/12/21 13:40:11;;;;;;;9.07;5.70;;;;;;;;;;5062612;28;20256;-84
2021/12/21 13:42:38;;;;;;;12.83;5.97;;;;;;;;;;5062397;28;20212;-84
2021/12/21 13:45:07;;;;;;;8.83;5.47;;;;;;;;;;5061800;28;20621;-83
2021/12/21 13:47:37;;;;;;;10.67;5.83;;;;;;;;;;5062191;28;20232;-83
2021/12/21 13:50:08;;;;;;;9.30;4.97;;;;;;;;;;5062128;28;20231;-83
2021/12/21 13:52:36;;;;;;;5.97;4.67;;;;;;;;;;5062675;28;20209;-84
2021/12/21 13:55:05;;;;;;;8.90;5.43;;;;;;;;;;5060200;28;20269;-83
2021/12/21 13:57:32;;;;;;;7.90;4.87;;;;;;;;;;5061882;28;20202;-83
2021/12/21 14:00:06;;;;;;;6.07;4.60;;;;;;;;;;5063784;28;20246;-83
2021/12/21 14:02:35;;;;;;;6.43;4.97;;;;;;;;;;5080839;28;20215;-83
2021/12/21 14:05:05;;;;;;;8.73;4.80;;;;;;;;;;5081098;28;20271;-83
2021/12/21 14:07:35;;;;;;;6.63;4.20;;;;;;;;;;5082056;28;20319;-83
2021/12/21 14:10:05;;;;;;;10.07;4.57;;;;;;;;;;5081868;28;20240;-84
2021/12/21 14:12:32;;;;;;;6.37;3.73;;;;;;;;;;5082188;28;20268;-83
2021/12/21 14:14:59;;;;;;;8.03;4.10;;;;;;;;;;5081518;28;20741;-83
2021/12/21 14:17:27;;;;;;;7.80;4.27;;;;;;;;;;5077562;28;20593;-83
2021/12/21 14:19:58;;;;;;;6.33;3.47;;;;;;;;;;5059179;28;20237;-84
2021/12/21 14:22:25;;;;;;;3.77;3.47;;;;;;;;;;5053944;28;20216;-85
2021/12/21 14:24:54;;;;;;;8.60;3.67;;;;;;;;;;5048639;28;20237;-84
2021/12/21 14:27:26;;;;;;;6.27;3.13;;;;;;;;;;5058536;28;20229;-85
2021/12/21 14:29:54;;;;;;;8.37;3.77;;;;;;;;;;5063065;28;20299;-83
2021/12/21 14:32:37;;;;;;;6.67;3.60;;;;;;;;;;5061448;28;20683;-82
2021/12/21 14:35:12;;;;;;;4.40;4.00;;;;;;;;;;5057212;28;20249;-85
2021/12/21 14:37:39;;;;;;;4.33;3.60;;;;;;;;;;5046868;28;20284;-85
2021/12/21 14:40:09;;;;;;;7.97;4.37;;;;;;;;;;5044686;28;20739;-84
2021/12/21 14:42:36;;;;;;;9.40;4.17;;;;;;;;;;5054421;28;20190;-86
2021/12/21 14:45:06;;;;;;;6.00;4.27;;;;;;;;;;5053386;28;20236;-86
2021/12/21 14:47:34;;;;;;;6.67;3.80;;;;;;;;;;5058152;28;20713;-85
2021/12/21 14:50:03;;;;;;;8.77;4.30;;;;;;;;;;5055115;28;20252;-86
2021/12/21 14:52:40;;;;;;;4.43;4.00;;;;;;;;;;5053886;28;20561;-85
2021/12/21 14:55:09;;;;;;;6.87;4.60;;;;;;;;;;5053358;28;20316;-85
2021/12/21 14:57:38;;;;;;;6.93;4.57;;;;;;;;;;5055678;28;20209;-85
2021/12/21 15:00:09;;;;;;;5.00;4.27;;;;;;;;;;5054286;28;20759;-85
2021/12/21 15:02:51;;;;;;;5.03;4.17;;;;;;;;;;5054763;28;20194;-85
2021/12/21 15:05:19;;;;;;;8.90;4.57;;;;;;;;;;5054012;28;20295;-85
2021/12/21 15:07:46;;;;;;;5.00;4.20;;;;;;;;;;5053963;28;20230;-85
2021/12/21 15:10:20;;;;;;;5.37;4.03;;;;;;;;;;5060739;28;20241;-83
2021/12/21 15:12:47;;;;;;;5.73;4.40;;;;;;;;;;5060338;28;20220;-84
2021/12/21 15:15:14;;;;;;;9.17;4.23;;;;;;;;;;5060328;28;20245;-83
2021/12/21 15:17:41;;;;;;;9.57;4.83;;;;;;;;;;5062339;28;20206;-83
2021/12/21 15:20:11;;;;;;;11.67;5.00;;;;;;;;;;5059979;28;20808;-83